Time;durP1;ratioP1;P1;durP2;ratioP2;P2;SDS_P1;SDS_P2;PMS_P1;PMS_P2;Temp;Humidity;BMP_temperature;BMP_pressure;BME280_temperature;BME280_humidity;BME280_pressure;Samples;Min_cycle;Max_cycle;Signal;HPM_P1;HPM_P2
2023/06/13 00:00:20;;;;;;;;;8.00;8.00;;;;;16.78;56.42;98892.16;5066253;28;8864;-72
2023/06/13 00:03:11;;;;;;;;;6.20;6.20;;;;;16.85;56.25;98891.81;5067781;28;8890;-72
2023/06/13 00:05:45;;;;;;;;;9.00;9.00;;;;;16.44;56.96;98887.91;5017937;28;8867;-71
2023/06/13 00:08:17;;;;;;;;;6.00;5.40;;;;;16.46;56.79;98885.19;5071003;28;8870;-72
2023/06/13 00:10:48;;;;;;;;;8.60;8.60;;;;;16.32;56.72;98881.47;5090017;28;8848;-74
2023/06/13 00:13:18;;;;;;;;;8.60;8.00;;;;;16.13;57.42;98883.41;5090333;28;8932;-74
2023/06/13 00:15:51;;;;;;;;;9.00;8.60;;;;;16.26;56.84;98884.44;5085700;28;8863;-73
2023/06/13 00:18:22;;;;;;;;;10.40;10.40;;;;;16.34;56.44;98882.22;5070319;28;8874;-73
2023/06/13 00:20:54;;;;;;;;;7.00;7.00;;;;;16.42;56.31;98884.47;5067603;28;8863;-74
2023/06/13 00:23:23;;;;;;;;;10.00;9.60;;;;;16.53;55.83;98882.09;5069658;28;8861;-73
2023/06/13 00:25:54;;;;;;;;;8.40;8.40;;;;;16.55;56.08;98881.97;5067004;28;8858;-74
2023/06/13 00:28:23;;;;;;;;;8.80;8.80;;;;;16.58;55.80;98889.78;5070196;28;8858;-74
2023/06/13 00:30:52;;;;;;;;;9.40;9.40;;;;;16.31;55.90;98881.53;5068277;28;8865;-74
2023/06/13 00:33:21;;;;;;;;;9.20;9.20;;;;;16.30;56.06;98885.13;5087086;28;8855;-74
2023/06/13 00:35:49;;;;;;;;;6.80;6.80;;;;;16.43;55.70;98894.13;5105273;28;8889;-72
2023/06/13 00:38:23;;;;;;;;;10.40;9.60;;;;;16.51;55.47;98886.63;5086504;28;8882;-74
2023/06/13 00:40:53;;;;;;;;;8.80;8.80;;;;;16.74;55.20;98887.13;5067057;28;8869;-74
2023/06/13 00:43:23;;;;;;;;;6.80;6.80;;;;;16.31;55.68;98895.66;5085029;28;10057;-73
2023/06/13 00:45:51;;;;;;;;;10.00;8.60;;;;;16.45;55.55;98888.75;5067774;28;8951;-73
2023/06/13 00:48:21;;;;;;;;;10.20;9.80;;;;;16.58;55.23;98889.78;5067937;28;8881;-74
2023/06/13 00:50:50;;;;;;;;;11.00;8.60;;;;;16.59;55.28;98891.50;5088100;28;8842;-74
2023/06/13 00:53:21;;;;;;;;;8.00;8.00;;;;;16.66;54.99;98884.03;5067865;28;8872;-74
2023/06/13 00:55:51;;;;;;;;;8.00;8.00;;;;;16.61;54.93;98877.19;5067774;28;9645;-73
2023/06/13 00:58:22;;;;;;;;;8.40;8.40;;;;;16.46;55.28;98879.88;5068042;28;8988;-75
2023/06/13 01:00:54;;;;;;;;;10.00;8.20;;;;;16.56;55.00;98878.41;5101027;28;8877;-74
2023/06/13 01:03:24;;;;;;;;;8.00;8.00;;;;;16.57;54.96;98875.66;5084440;28;8842;-73
2023/06/13 01:05:52;;;;;;;;;7.20;7.20;;;;;16.51;55.03;98886.63;5065946;28;8957;-74
2023/06/13 01:08:27;;;;;;;;;9.20;9.20;;;;;16.52;55.10;98887.47;5068712;28;8885;-74
2023/06/13 01:11:03;;;;;;;;;4.60;4.60;;;;;16.45;55.22;98889.59;5068530;28;9569;-75
2023/06/13 01:13:40;;;;;;;;;9.20;9.20;;;;;16.43;54.88;98887.00;5033689;28;8862;-74
2023/06/13 01:16:16;;;;;;;;;6.40;6.40;;;;;16.29;55.80;98881.63;5069985;28;8955;-73
2023/06/13 01:18:49;;;;;;;;;8.20;8.00;;;;;16.32;55.58;98880.59;5068371;28;8884;-73
2023/06/13 01:21:19;;;;;;;;;7.20;7.20;;;;;16.56;55.07;98887.22;5100215;28;9001;-75
2023/06/13 01:23:53;;;;;;;;;8.80;8.80;;;;;16.73;54.71;98877.44;5068871;28;8917;-74
2023/06/13 01:26:37;;;;;;;;;10.80;10.80;;;;;16.84;53.77;98876.84;5068640;28;8874;-74
2023/06/13 01:29:07;;;;;;;;;9.20;9.20;;;;;16.69;53.83;98881.22;5084962;28;8939;-73
2023/06/13 01:31:37;;;;;;;;;9.00;9.00;;;;;16.71;53.77;98882.84;5066929;28;8854;-74
2023/06/13 01:34:06;;;;;;;;;8.80;7.60;;;;;16.71;54.07;98884.63;5100849;28;8977;-75
2023/06/13 01:36:36;;;;;;;;;10.60;9.40;;;;;16.72;53.66;98867.75;5049668;28;8974;-73
2023/06/13 01:39:05;;;;;;;;;11.40;10.60;;;;;16.53;54.20;98866.19;5067096;28;8842;-73
2023/06/13 01:41:33;;;;;;;;;8.60;8.60;;;;;16.66;53.97;98871.63;5068250;28;8876;-74
2023/06/13 01:44:06;;;;;;;;;8.80;8.80;;;;;16.69;54.00;98874.09;5025667;28;8875;-73
2023/06/13 01:46:46;;;;;;;;;11.20;11.20;;;;;16.51;54.31;98865.41;5012990;28;8854;-73
2023/06/13 01:49:23;;;;;;;;;7.60;7.60;;;;;16.71;53.99;98871.38;5029040;28;8838;-73
2023/06/13 01:52:00;;;;;;;;;6.80;6.80;;;;;16.49;54.72;98875.22;5061838;28;8862;-72
2023/06/13 01:54:35;;;;;;;;;12.20;11.20;;;;;16.70;54.08;98867.88;5044546;28;8919;-75
2023/06/13 01:57:06;;;;;;;;;10.00;9.00;;;;;16.57;53.85;98870.38;5061714;28;8990;-74
2023/06/13 01:59:39;;;;;;;;;10.40;9.20;;;;;16.46;54.35;98879.88;5062268;28;8947;-74
2023/06/13 02:02:09;;;;;;;;;11.00;11.00;;;;;16.13;55.28;98876.28;5028847;28;8858;-73
2023/06/13 02:04:43;;;;;;;;;10.00;9.40;;;;;16.37;54.56;98882.03;5045436;28;8854;-72
2023/06/13 02:07:12;;;;;;;;;7.80;7.80;;;;;16.46;54.54;98877.22;5012232;28;9114;-73
2023/06/13 02:09:41;;;;;;;;;7.20;7.20;;;;;16.18;54.72;98884.84;5045298;28;8858;-73
2023/06/13 02:12:11;;;;;;;;;10.60;9.20;;;;;15.79;55.91;98888.75;5044078;28;8977;-73
2023/06/13 02:14:42;;;;;;;;;11.00;10.00;;;;;16.16;54.93;98880.59;5045394;28;9013;-73
2023/06/13 02:17:11;;;;;;;;;9.60;9.00;;;;;16.24;54.46;98875.72;5061678;28;8846;-74
2023/06/13 02:19:41;;;;;;;;;12.40;11.20;;;;;16.22;54.79;98878.44;5044726;28;8858;-74
2023/06/13 02:22:09;;;;;;;;;10.60;10.60;;;;;16.28;55.19;98879.91;5073997;28;8868;-74
2023/06/13 02:24:38;;;;;;;;;12.40;12.40;;;;;16.53;54.46;98874.13;5068404;28;8918;-73
2023/06/13 02:27:08;;;;;;;;;9.40;9.40;;;;;16.68;53.89;98876.84;5102386;28;8860;-73
2023/06/13 02:29:38;;;;;;;;;9.80;8.80;;;;;16.76;53.52;98885.25;5086672;28;8855;-73
2023/06/13 02:32:09;;;;;;;;;12.80;11.60;;;;;16.88;53.35;98881.03;5074860;28;8868;-74
2023/06/13 02:34:38;;;;;;;;;11.60;11.20;;;;;16.80;52.87;98877.00;5064791;28;9643;-74
2023/06/13 02:37:08;;;;;;;;;12.00;10.80;;;;;16.53;53.45;98886.53;5064974;28;8848;-74
2023/06/13 02:39:37;;;;;;;;;11.20;10.20;;;;;16.33;53.23;98888.47;5048145;28;8828;-74
2023/06/13 02:42:08;;;;;;;;;10.00;10.00;;;;;16.23;53.36;98884.63;4999193;28;8987;-73
2023/06/13 02:44:37;;;;;;;;;11.20;10.60;;;;;16.42;53.00;98879.16;5015579;28;9769;-74
2023/06/13 02:47:06;;;;;;;;;8.40;8.20;;;;;16.45;52.61;98889.59;5049747;28;9090;-73
2023/06/13 02:49:36;;;;;;;;;7.80;7.80;;;;;16.40;53.00;98889.84;5035579;28;8938;-74
2023/06/13 02:52:06;;;;;;;;;8.40;8.40;;;;;16.41;52.95;98882.72;5084647;28;8862;-73
2023/06/13 02:54:35;;;;;;;;;9.60;9.60;;;;;16.51;52.27;98883.09;4986644;28;8978;-72
2023/06/13 02:57:04;;;;;;;;;10.60;9.20;;;;;16.53;52.24;98879.44;5052098;28;8879;-73
2023/06/13 02:59:33;;;;;;;;;8.40;8.40;;;;;16.31;52.81;98882.38;4982340;28;8992;-72
2023/06/13 03:02:02;;;;;;;;;8.00;8.00;;;;;16.38;52.41;98891.72;5080028;28;8852;-73
2023/06/13 03:04:32;;;;;;;;;11.00;9.00;;;;;16.52;52.02;98890.13;5047655;28;8964;-74
2023/06/13 03:07:04;;;;;;;;;12.20;10.80;;;;;16.44;52.25;98885.25;5047426;28;8864;-75
2023/06/13 03:09:34;;;;;;;;;10.40;10.40;;;;;15.71;53.86;98896.22;5047976;28;8871;-73
2023/06/13 03:12:03;;;;;;;;;10.00;10.00;;;;;15.54;54.90;98893.56;5065326;28;8847;-74
2023/06/13 03:14:34;;;;;;;;;10.60;10.00;;;;;15.82;53.98;98895.66;5054203;28;8898;-74
2023/06/13 03:17:03;;;;;;;;;9.40;9.40;;;;;15.98;53.43;98900.97;5046492;28;8980;-73
2023/06/13 03:19:32;;;;;;;;;13.00;11.40;;;;;16.11;52.69;98904.69;5064169;28;8875;-73
2023/06/13 03:22:03;;;;;;;;;11.20;10.80;;;;;15.68;53.31;98909.66;5064416;28;8886;-73
2023/06/13 03:24:32;;;;;;;;;11.40;11.40;;;;;15.52;53.40;98906.03;5030011;28;8936;-73
2023/06/13 03:27:01;;;;;;;;;13.20;10.00;;;;;15.61;53.52;98911.75;5047389;28;8911;-74
2023/06/13 03:29:30;;;;;;;;;11.00;11.00;;;;;15.85;52.82;98903.47;5067203;28;8876;-74
2023/06/13 03:31:59;;;;;;;;;9.00;9.00;;;;;15.79;53.09;98901.09;5083750;28;9690;-73
2023/06/13 03:34:29;;;;;;;;;10.60;10.60;;;;;15.97;52.43;98904.59;5085377;28;8869;-72
2023/06/13 03:37:03;;;;;;;;;9.40;9.00;;;;;14.91;55.35;98913.50;5102716;28;8884;-74
2023/06/13 03:39:35;;;;;;;;;13.20;13.00;;;;;15.11;54.30;98920.41;5086027;28;8854;-74
2023/06/13 03:42:04;;;;;;;;;12.80;11.80;;;;;14.58;56.03;98921.22;5102864;28;8910;-74
2023/06/13 03:44:33;;;;;;;;;11.60;11.60;;;;;14.99;54.95;98918.41;5102552;28;8870;-73
2023/06/13 03:47:02;;;;;;;;;10.60;10.20;;;;;14.81;55.55;98913.09;5069653;28;8893;-73
2023/06/13 03:49:32;;;;;;;;;8.80;8.80;;;;;13.82;59.12;98915.88;5085856;28;8889;-74
2023/06/13 03:52:01;;;;;;;;;12.00;11.00;;;;;13.45;60.87;98917.44;5018506;28;8880;-74
2023/06/13 03:54:30;;;;;;;;;11.20;11.20;;;;;13.22;61.29;98924.59;5085886;28;8826;-73
2023/06/13 03:57:00;;;;;;;;;8.60;8.60;;;;;12.90;62.57;98925.88;5069445;28;8900;-73
2023/06/13 03:59:30;;;;;;;;;10.80;10.80;;;;;12.58;63.83;98927.13;5085598;28;8842;-75
2023/06/13 04:01:58;;;;;;;;;13.80;13.80;;;;;12.70;63.85;98937.22;5037414;28;8972;-74
2023/06/13 04:04:28;;;;;;;;;12.80;12.80;;;;;12.92;63.19;98932.84;5085537;28;8955;-73
2023/06/13 04:06:56;;;;;;;;;15.00;12.60;;;;;12.44;64.03;98932.97;5085514;28;9001;-73
2023/06/13 04:09:25;;;;;;;;;12.00;11.80;;;;;12.21;65.00;98939.97;5102430;28;8838;-74
2023/06/13 04:11:54;;;;;;;;;11.80;11.80;;;;;12.33;64.75;98936.88;5018517;28;8847;-74
2023/06/13 04:14:25;;;;;;;;;12.60;11.40;;;;;12.33;65.23;98942.16;5068427;28;8870;-75
2023/06/13 04:16:53;;;;;;;;;13.00;13.00;;;;;12.64;64.36;98940.97;5053124;28;8858;-74
2023/06/13 04:19:23;;;;;;;;;12.00;12.00;;;;;12.61;64.33;98943.69;5068233;28;9643;-73
2023/06/13 04:21:52;;;;;;;;;10.00;10.00;;;;;12.44;65.25;98954.03;5101841;28;8951;-73
2023/06/13 04:24:22;;;;;;;;;13.40;10.60;;;;;12.14;66.29;98954.28;5067950;28;8901;-73
2023/06/13 04:26:51;;;;;;;;;32.80;31.40;;;;;12.46;64.81;98960.97;5069837;28;8876;-74
2023/06/13 04:29:21;;;;;;;;;13.40;11.60;;;;;12.28;66.00;98959.91;5069212;28;8885;-69
2023/06/13 04:31:51;;;;;;;;;12.60;11.20;;;;;12.17;66.23;98956.81;5111870;27;8868;-67
2023/06/13 04:34:20;;;;;;;;;11.00;10.40;;;;;12.11;66.71;98967.56;5086489;28;8855;-68
2023/06/13 04:36:49;;;;;;;;;13.20;13.20;;;;;12.37;65.60;98958.66;5076407;28;8956;-69
2023/06/13 04:39:18;;;;;;;;;10.40;10.40;;;;;12.67;64.20;98961.91;5088847;28;8867;-74
2023/06/13 04:41:48;;;;;;;;;11.00;11.00;;;;;12.72;64.42;98957.31;5087689;28;8852;-72
2023/06/13 04:44:17;;;;;;;;;14.40;12.40;;;;;12.58;64.59;98956.13;5049774;28;8862;-74
2023/06/13 04:46:47;;;;;;;;;14.80;12.20;;;;;12.96;63.21;98967.88;5069629;28;8862;-75
2023/06/13 04:49:17;;;;;;;;;10.60;10.60;;;;;12.44;64.54;98969.84;5070236;28;8860;-76
2023/06/13 04:51:47;;;;;;;;;15.00;13.60;;;;;12.56;64.42;98968.53;5088810;28;8867;-75
2023/06/13 04:54:16;;;;;;;;;12.00;11.00;;;;;13.01;62.96;98970.31;5075148;28;8924;-74
2023/06/13 04:56:45;;;;;;;;;13.60;12.00;;;;;12.95;62.96;98975.84;5101075;28;8881;-75
2023/06/13 04:59:14;;;;;;;;;13.60;13.60;;;;;13.19;62.29;98966.09;5070450;28;8967;-75
2023/06/13 05:01:43;;;;;;;;;12.80;12.80;;;;;13.54;60.82;98961.94;5072982;28;8859;-75
2023/06/13 05:04:14;;;;;;;;;14.80;13.00;;;;;12.95;62.31;98978.47;5100870;28;8880;-76
2023/06/13 05:06:44;;;;;;;;;13.20;11.00;;;;;12.89;63.24;98969.03;5065506;28;9634;-77
2023/06/13 05:09:14;;;;;;;;;11.80;11.40;;;;;13.08;62.15;98980.56;5068356;28;8959;-78
2023/06/13 05:11:42;;;;;;;;;14.20;13.40;;;;;13.57;60.88;98980.31;5058381;28;9006;-78
2023/06/13 05:14:11;;;;;;;;;14.60;14.60;;;;;13.44;61.00;98984.41;5065391;28;8845;-80
2023/06/13 05:16:40;;;;;;;;;13.40;12.00;;;;;13.24;61.31;98982.56;5028743;28;8918;-77
2023/06/13 05:19:09;;;;;;;;;14.60;14.00;;;;;13.18;61.56;98985.47;5068511;28;8849;-76
2023/06/13 05:21:38;;;;;;;;;13.20;13.00;;;;;13.24;61.73;98994.00;5065164;28;8861;-77
2023/06/13 05:24:10;;;;;;;;;14.00;14.00;;;;;13.38;60.89;98982.88;5053874;28;8881;-76
2023/06/13 05:26:38;;;;;;;;;10.40;10.20;;;;;13.30;61.22;98993.75;5064757;28;8963;-77
2023/06/13 05:29:07;;;;;;;;;12.60;12.00;;;;;12.88;62.73;98997.19;5052125;28;8833;-76
2023/06/13 05:31:36;;;;;;;;;15.60;14.60;;;;;13.34;61.77;98996.28;5060312;28;8890;-77
2023/06/13 05:34:05;;;;;;;;;14.60;13.20;;;;;13.19;62.20;98990.69;5053493;28;8851;-77
2023/06/13 05:36:34;;;;;;;;;12.80;12.80;;;;;13.14;62.73;98991.78;5046866;28;8878;-75
2023/06/13 05:39:03;;;;;;;;;14.80;12.80;;;;;13.31;62.43;98990.16;5065187;28;8837;-77
2023/06/13 05:41:34;;;;;;;;;11.00;11.00;;;;;13.64;60.73;98994.13;5015955;28;8896;-76
2023/06/13 05:44:03;;;;;;;;;14.00;14.00;;;;;13.75;60.31;98983.09;5064684;28;8853;-77
2023/06/13 05:46:31;;;;;;;;;14.00;11.40;;;;;13.56;59.99;98994.44;5051136;28;8962;-76
2023/06/13 05:49:00;;;;;;;;;13.00;13.00;;;;;12.84;62.72;99013.16;5072964;28;9730;-76
2023/06/13 05:51:30;;;;;;;;;13.00;12.60;;;;;13.03;62.24;99000.13;5073243;28;8975;-76
2023/06/13 05:53:59;;;;;;;;;14.60;13.00;;;;;13.09;62.11;99000.75;5067995;28;8881;-77
2023/06/13 05:56:28;;;;;;;;;13.20;12.80;;;;;13.14;62.30;99005.84;5082458;28;9659;-76
2023/06/13 05:58:58;;;;;;;;;18.20;15.40;;;;;12.92;63.60;99004.06;5067234;28;8831;-77
2023/06/13 06:01:29;;;;;;;;;14.60;13.00;;;;;13.40;62.19;98991.56;5067928;28;8965;-77
2023/06/13 06:03:58;;;;;;;;;18.00;14.40;;;;;13.94;60.07;98993.75;5054740;28;9007;-77
2023/06/13 06:06:26;;;;;;;;;19.60;18.80;;;;;14.12;59.71;98995.59;5084036;28;8955;-76
2023/06/13 06:08:55;;;;;;;;;17.80;15.00;;;;;13.93;60.13;99005.25;5048013;28;8918;-77
2023/06/13 06:11:24;;;;;;;;;15.00;14.00;;;;;13.55;61.21;98995.38;5075250;28;8890;-76
2023/06/13 06:13:54;;;;;;;;;16.60;16.60;;;;;13.51;61.35;99005.19;5072199;28;8862;-77
2023/06/13 06:16:24;;;;;;;;;16.20;14.60;;;;;14.01;59.80;98993.41;5072595;28;8867;-76
2023/06/13 06:18:53;;;;;;;;;13.40;13.40;;;;;13.72;60.60;98991.16;5076276;28;8850;-77
2023/06/13 06:21:22;;;;;;;;;16.40;15.00;;;;;13.69;61.04;98992.13;5066622;28;8870;-77
2023/06/13 06:23:51;;;;;;;;;16.00;16.00;;;;;14.31;59.16;98984.19;5099313;28;8893;-77
2023/06/13 06:26:20;;;;;;;;;14.40;14.00;;;;;14.02;60.33;98984.56;5066851;28;8880;-76
2023/06/13 06:28:49;;;;;;;;;15.60;15.40;;;;;13.75;60.32;98994.53;5054912;28;8894;-77
2023/06/13 06:31:18;;;;;;;;;17.80;17.80;;;;;13.50;62.91;98982.34;5073582;28;8883;-76
2023/06/13 06:33:48;;;;;;;;;15.80;14.60;;;;;13.84;62.03;98972.16;5066901;28;8980;-77
2023/06/13 06:36:17;;;;;;;;;13.00;13.00;;;;;13.80;61.65;98984.63;5066640;28;8854;-75
2023/06/13 06:38:46;;;;;;;;;14.20;14.20;;;;;14.63;59.98;98994.13;5067397;28;8869;-77
2023/06/13 06:41:16;;;;;;;;;13.40;13.40;;;;;13.80;61.74;98989.03;5064180;28;8866;-76
2023/06/13 06:43:45;;;;;;;;;14.00;13.80;;;;;13.79;62.33;99004.03;5065988;28;8842;-76
2023/06/13 06:46:15;;;;;;;;;15.60;15.60;;;;;13.82;62.12;99003.91;5104934;28;8873;-76
2023/06/13 06:48:44;;;;;;;;;13.60;13.60;;;;;14.07;61.22;99003.72;5102569;28;8885;-77
2023/06/13 06:51:15;;;;;;;;;17.00;17.00;;;;;13.96;61.60;99000.69;5068197;28;8892;-76
2023/06/13 06:53:44;;;;;;;;;16.00;15.80;;;;;14.06;61.53;98995.88;5065972;28;8842;-78
2023/06/13 06:56:13;;;;;;;;;13.60;13.60;;;;;14.71;59.23;98988.47;5083260;28;8904;-79
2023/06/13 06:58:42;;;;;;;;;14.00;14.00;;;;;14.84;58.02;98994.09;5087330;28;8936;-77
2023/06/13 07:01:10;;;;;;;;;12.60;12.60;;;;;14.81;58.14;98996.88;5085828;28;8849;-80
2023/06/13 07:03:40;;;;;;;;;18.00;17.60;;;;;14.82;58.31;98996.81;5087512;28;8876;-77
2023/06/13 07:06:08;;;;;;;;;12.80;11.80;;;;;14.67;58.10;99000.13;5086623;28;9625;-78
2023/06/13 07:08:39;;;;;;;;;15.00;14.60;;;;;14.54;58.69;99014.88;5086635;28;8857;-78
2023/06/13 07:11:08;;;;;;;;;18.00;17.00;;;;;14.60;58.54;99004.00;5070795;28;9527;-78
2023/06/13 07:13:37;;;;;;;;;14.20;13.40;;;;;14.80;58.30;99003.97;5103559;28;8854;-79
2023/06/13 07:16:06;;;;;;;;;13.40;12.60;;;;;15.19;56.61;99007.44;5071381;28;8858;-78
2023/06/13 07:18:35;;;;;;;;;14.40;13.00;;;;;14.96;57.11;99009.41;5019681;28;8854;-78
2023/06/13 07:21:04;;;;;;;;;13.20;13.20;;;;;14.26;59.00;99009.06;5069639;28;8859;-80
2023/06/13 07:23:33;;;;;;;;;16.00;15.60;;;;;14.22;59.24;99012.75;5069412;28;8866;-77
2023/06/13 07:26:03;;;;;;;;;8.20;8.20;;;;;14.40;58.15;99008.41;5070524;28;8897;-78
2023/06/13 07:28:32;;;;;;;;;16.20;15.20;;;;;14.36;58.11;99012.13;5114574;27;8885;-78
2023/06/13 07:31:02;;;;;;;;;14.60;14.40;;;;;14.17;59.27;99003.28;5071895;28;8858;-79
2023/06/13 07:33:31;;;;;;;;;13.80;13.60;;;;;14.52;57.76;99007.00;5101875;28;8946;-79
2023/06/13 07:36:00;;;;;;;;;15.60;14.60;;;;;14.54;57.93;99006.94;5058793;28;8850;-80
2023/06/13 07:38:29;;;;;;;;;15.40;14.60;;;;;14.52;56.31;99012.28;5102672;28;8828;-80
2023/06/13 07:40:58;;;;;;;;;13.40;13.40;;;;;14.53;56.82;99007.84;5065852;28;8872;-79
2023/06/13 07:43:28;;;;;;;;;15.80;15.40;;;;;14.29;57.46;99019.47;5073165;28;8846;-81
2023/06/13 07:45:57;;;;;;;;;14.80;14.40;;;;;14.45;56.50;99017.00;5060498;28;8871;-79
2023/06/13 07:48:26;;;;;;;;;14.40;14.40;;;;;14.24;57.70;99020.59;5082750;28;8918;-80
2023/06/13 07:50:55;;;;;;;;;15.20;13.40;;;;;14.71;56.53;99017.59;5087445;28;8871;-78
2023/06/13 07:53:24;;;;;;;;;23.80;22.20;;;;;15.01;54.86;99022.41;5068892;28;8859;-79
2023/06/13 07:55:55;;;;;;;;;13.80;13.00;;;;;15.10;54.64;99019.31;5018698;28;8879;-80
2023/06/13 07:58:24;;;;;;;;;14.00;14.00;;;;;15.20;53.66;99014.44;5034835;28;8848;-72
2023/06/13 08:00:54;;;;;;;;;9.40;9.40;;;;;15.13;53.96;99031.53;5066845;28;8848;-71
2023/06/13 08:03:24;;;;;;;;;14.00;14.00;;;;;15.34;54.17;99024.34;5067788;28;8872;-73
2023/06/13 08:05:55;;;;;;;;;12.60;11.60;;;;;15.68;53.51;99022.69;5064041;28;8886;-71
2023/06/13 08:08:24;;;;;;;;;14.40;14.40;;;;;15.37;53.95;99021.56;5050364;28;8856;-71
2023/06/13 08:10:53;;;;;;;;;14.20;14.00;;;;;15.13;54.41;99024.47;5066578;28;9001;-73
2023/06/13 08:13:22;;;;;;;;;13.80;13.80;;;;;15.61;52.16;99020.38;5067888;28;8894;-71
2023/06/13 08:15:51;;;;;;;;;13.00;12.40;;;;;15.78;51.08;99022.16;5049888;28;8922;-72
2023/06/13 08:18:22;;;;;;;;;11.80;11.80;;;;;15.94;51.42;99043.44;5066329;28;8886;-70
2023/06/13 08:20:50;;;;;;;;;14.80;14.80;;;;;15.72;51.57;99032.19;5017649;28;8872;-73
2023/06/13 08:23:19;;;;;;;;;11.40;11.40;;;;;15.81;51.77;99032.63;5089995;28;8859;-72
2023/06/13 08:25:49;;;;;;;;;16.00;15.00;;;;;15.35;51.31;99047.25;5074193;28;9021;-72
2023/06/13 08:28:18;;;;;;;;;14.40;14.40;;;;;16.03;49.95;99035.00;5050743;28;9777;-75
2023/06/13 08:30:47;;;;;;;;;12.00;12.00;;;;;15.59;50.91;99045.19;5070404;28;8862;-75
2023/06/13 08:33:16;;;;;;;;;14.00;13.80;;;;;15.81;50.62;99035.28;5073300;28;8946;-74
2023/06/13 08:35:47;;;;;;;;;16.40;13.00;;;;;15.66;50.20;99038.66;5089043;28;10012;-75
2023/06/13 08:38:16;;;;;;;;;12.60;12.00;;;;;16.15;49.56;99035.31;5089741;28;8848;-76
2023/06/13 08:40:45;;;;;;;;;16.60;14.20;;;;;16.22;48.94;99044.66;5089500;28;8855;-74
2023/06/13 08:43:15;;;;;;;;;15.20;14.00;;;;;16.66;45.55;99045.91;5090189;28;9743;-74
2023/06/13 08:45:44;;;;;;;;;13.40;13.40;;;;;17.35;45.55;99042.13;5089415;28;8870;-72
2023/06/13 08:48:13;;;;;;;;;10.80;10.80;;;;;16.89;45.49;99050.84;5089419;28;8920;-78
2023/06/13 08:50:43;;;;;;;;;11.40;10.60;;;;;17.65;42.46;99046.63;5072011;28;8838;-72
2023/06/13 08:53:17;;;;;;;;;8.00;8.00;;;;;18.15;43.06;99040.94;5059916;28;9107;-72
2023/06/13 08:55:49;;;;;;;;;10.00;10.00;;;;;18.55;42.62;99048.31;5069248;28;8869;-72
2023/06/13 08:58:22;;;;;;;;;6.60;6.00;;;;;18.83;39.32;99057.25;5069410;28;8852;-75
2023/06/13 09:00:51;;;;;;;;;8.00;8.00;;;;;19.32;39.73;99048.78;5068759;28;8898;-71
2023/06/13 09:03:21;;;;;;;;;11.40;11.00;;;;;19.25;39.66;99055.47;5050110;28;8854;-72
2023/06/13 09:05:51;;;;;;;;;8.20;8.00;;;;;19.50;38.18;99055.59;5068354;28;8866;-73
2023/06/13 09:08:22;;;;;;;;;14.00;12.00;;;;;19.42;37.93;99057.88;5069103;28;8892;-73
2023/06/13 09:11:11;;;;;;;;;8.20;8.20;;;;;19.08;39.35;99061.88;5069086;28;8877;-74
2023/06/13 09:13:43;;;;;;;;;11.00;11.00;;;;;18.78;39.81;99051.34;5068619;28;8965;-72
2023/06/13 09:16:12;;;;;;;;;10.20;9.40;;;;;18.85;38.89;99063.34;5050521;28;8888;-74
2023/06/13 09:18:43;;;;;;;;;7.40;7.40;;;;;19.59;38.68;99061.28;5068177;28;8838;-72
2023/06/13 09:21:11;;;;;;;;;7.80;7.80;;;;;19.73;37.94;99047.91;5100907;27;8869;-74
2023/06/13 09:23:42;;;;;;;;;7.60;7.60;;;;;19.96;36.84;99054.34;5099631;28;8843;-72
2023/06/13 09:26:11;;;;;;;;;7.20;7.00;;;;;20.14;36.36;99064.72;5068508;28;8927;-74
2023/06/13 09:28:42;;;;;;;;;7.40;7.40;;;;;20.56;36.25;99065.38;5068905;28;8870;-70
2023/06/13 09:31:11;;;;;;;;;11.80;11.80;;;;;20.64;37.03;99061.22;5068219;28;8950;-72
2023/06/13 09:33:41;;;;;;;;;9.80;9.00;;;;;20.95;36.82;99071.56;5085491;28;9528;-72
2023/06/13 09:36:11;;;;;;;;;9.20;8.60;;;;;21.16;36.03;99064.69;5075296;28;8858;-74
2023/06/13 09:38:42;;;;;;;;;9.00;8.40;;;;;19.57;36.38;99077.38;5079445;28;8921;-73
2023/06/13 09:41:13;;;;;;;;;7.60;7.60;;;;;18.14;38.57;99079.16;5087407;28;8978;-71
2023/06/13 09:43:43;;;;;;;;;9.00;9.00;;;;;17.93;40.36;99070.63;5086506;28;8844;-71
2023/06/13 09:46:14;;;;;;;;;10.20;10.20;;;;;18.85;39.97;99074.00;5087436;28;8958;-71
2023/06/13 09:48:45;;;;;;;;;5.20;5.20;;;;;18.77;40.10;99066.47;5067206;28;8876;-71
2023/06/13 09:51:14;;;;;;;;;10.20;8.60;;;;;19.52;39.93;99067.03;5049170;28;8889;-70
2023/06/13 09:53:47;;;;;;;;;10.80;10.80;;;;;19.23;39.03;99062.69;5067531;28;8850;-70
2023/06/13 09:56:16;;;;;;;;;8.80;8.80;;;;;19.37;38.83;99069.81;5067309;28;8882;-72
2023/06/13 09:58:45;;;;;;;;;10.60;8.60;;;;;20.02;38.28;99058.41;5067141;28;8850;-71
2023/06/13 10:01:15;;;;;;;;;6.60;6.60;;;;;20.26;38.21;99062.09;5067659;28;8920;-70
2023/06/13 10:03:45;;;;;;;;;9.00;7.80;;;;;19.81;39.22;99061.56;5067725;28;8858;-72
2023/06/13 10:06:14;;;;;;;;;8.60;7.60;;;;;19.19;39.55;99059.38;5067412;28;8966;-69
2023/06/13 10:08:45;;;;;;;;;12.00;8.20;;;;;18.95;40.24;99056.50;5100079;28;8868;-72
2023/06/13 10:11:18;;;;;;;;;9.60;9.60;;;;;19.11;40.27;99059.03;5067545;28;8904;-72
2023/06/13 10:13:52;;;;;;;;;12.20;11.20;;;;;19.83;39.01;99051.66;5065943;28;8864;-71
2023/06/13 10:16:22;;;;;;;;;11.60;11.60;;;;;20.23;38.99;99051.63;5067693;28;8969;-72
2023/06/13 10:18:54;;;;;;;;;11.20;9.40;;;;;20.58;38.21;99055.47;5068288;28;8881;-72
2023/06/13 10:21:23;;;;;;;;;11.00;10.60;;;;;20.94;37.78;99057.38;5066275;28;8947;-71
2023/06/13 10:23:57;;;;;;;;;7.60;7.60;;;;;21.17;37.20;99050.34;5067767;28;9623;-70
2023/06/13 10:26:33;;;;;;;;;7.00;7.00;;;;;21.40;35.93;99048.66;5067546;28;8858;-71
2023/06/13 10:29:33;;;;;;;;;7.60;6.80;;;;;20.93;36.19;99044.97;5067871;28;8901;-73
2023/06/13 10:32:16;;;;;;;;;13.00;10.40;;;;;20.25;37.57;99055.03;5044427;28;8865;-69
2023/06/13 10:35:13;;;;;;;;;5.80;5.00;;;;;20.86;35.05;99047.22;5044946;28;8865;-70
2023/06/13 10:38:24;;;;;;;;;7.80;7.00;;;;;21.36;34.99;99033.81;5044142;28;8846;-70
2023/06/13 10:41:07;;;;;;;;;8.60;7.60;;;;;21.52;33.50;99036.22;5004626;28;8909;-70
2023/06/13 10:43:43;;;;;;;;;8.00;7.40;;;;;21.88;33.45;99036.22;5004347;28;8867;-72
2023/06/13 10:46:13;;;;;;;;;7.60;7.40;;;;;22.03;33.24;99027.03;5004673;28;8867;-73
2023/06/13 10:48:48;;;;;;;;;9.60;8.60;;;;;22.34;33.80;99028.22;5004597;28;8870;-72
2023/06/13 10:51:20;;;;;;;;;6.00;6.00;;;;;22.33;33.22;99031.00;5004712;28;8875;-72
2023/06/13 10:53:58;;;;;;;;;8.20;8.20;;;;;22.23;32.58;99025.50;5004741;28;8851;-70
2023/06/13 10:56:32;;;;;;;;;9.20;7.80;;;;;22.30;32.84;99021.41;5005054;28;8887;-70
2023/06/13 10:59:05;;;;;;;;;8.80;7.00;;;;;22.54;31.77;99023.97;5004599;28;8928;-71
2023/06/13 11:01:35;;;;;;;;;5.80;5.80;;;;;22.60;31.79;99034.19;5004595;28;8897;-72
2023/06/13 11:04:09;;;;;;;;;7.60;7.60;;;;;22.71;32.31;99016.41;5004321;28;8897;-71
2023/06/13 11:06:40;;;;;;;;;11.00;11.00;;;;;22.90;31.50;99008.63;5004732;28;8960;-70
2023/06/13 11:09:15;;;;;;;;;9.00;8.60;;;;;23.15;31.14;99009.31;4988642;28;8968;-73
2023/06/13 11:11:48;;;;;;;;;6.00;6.00;;;;;23.29;30.80;99013.53;5008407;28;8948;-71
2023/06/13 11:14:20;;;;;;;;;8.60;7.40;;;;;23.36;31.21;99012.88;5035608;28;8850;-71
2023/06/13 11:16:49;;;;;;;;;6.00;5.40;;;;;23.55;30.74;99012.22;5066704;28;8849;-73
2023/06/13 11:19:21;;;;;;;;;3.00;3.00;;;;;23.59;30.15;99004.78;5066946;28;9722;-72
2023/06/13 11:21:53;;;;;;;;;7.20;6.80;;;;;23.86;29.33;99006.09;5099279;28;8850;-72
2023/06/13 11:24:22;;;;;;;;;6.80;6.00;;;;;23.88;28.62;98999.63;5066876;28;8860;-71
2023/06/13 11:26:53;;;;;;;;;5.20;5.20;;;;;24.20;29.37;98998.72;5066847;28;8938;-72
2023/06/13 11:29:22;;;;;;;;;7.00;6.80;;;;;24.21;28.73;98992.38;5064278;28;9016;-73
2023/06/13 11:31:53;;;;;;;;;7.20;7.20;;;;;24.12;27.93;98996.66;5082188;28;9682;-71
2023/06/13 11:34:25;;;;;;;;;8.00;7.40;;;;;24.36;27.59;99000.94;5066437;28;8854;-73
2023/06/13 11:37:01;;;;;;;;;7.00;6.80;;;;;24.53;27.37;99000.28;5066697;28;8862;-80
2023/06/13 11:39:37;;;;;;;;;7.00;7.00;;;;;23.83;26.32;98995.63;5049126;28;8902;-82
2023/06/13 11:42:12;;;;;;;;;6.20;6.20;;;;;24.06;27.52;98997.19;5067240;28;9608;-72
2023/06/13 11:44:42;;;;;;;;;8.00;8.00;;;;;24.29;27.38;98997.06;5031590;28;8858;-77
2023/06/13 11:47:12;;;;;;;;;6.00;6.00;;;;;24.63;27.42;98996.78;5065704;28;8846;-74